Time;durP1;ratioP1;P1;durP2;ratioP2;P2;SDS_P1;SDS_P2;PMS_P1;PMS_P2;Temp;Humidity;BMP_temperature;BMP_pressure;BME280_temperature;BME280_humidity;BME280_pressure;Samples;Min_cycle;Max_cycle;Signal;HPM_P1;HPM_P2
2020/12/09 00:01:14;;;;;;;22.50;6.20;;;3.40;99.90;;;;;;5090207;28;20503;-82
2020/12/09 00:03:40;;;;;;;25.17;7.57;;;3.50;99.90;;;;;;5091339;28;20038;-81
2020/12/09 00:06:07;;;;;;;32.75;7.13;;;3.60;99.90;;;;;;5091462;28;20399;-80
2020/12/09 00:08:33;;;;;;;21.83;6.82;;;3.70;99.80;;;;;;5089979;28;20402;-83
2020/12/09 00:10:59;;;;;;;31.42;6.60;;;3.80;99.80;;;;;;5091390;28;20028;-80
2020/12/09 00:13:25;;;;;;;18.52;6.35;;;3.90;99.70;;;;;;5073196;28;20031;-81
2020/12/09 00:15:51;;;;;;;22.65;5.38;;;3.90;99.60;;;;;;5090090;28;20105;-81
2020/12/09 00:18:17;;;;;;;18.77;5.25;;;3.80;99.50;;;;;;5090003;28;20036;-83
2020/12/09 00:20:43;;;;;;;20.85;7.10;;;3.80;99.50;;;;;;5072784;28;20386;-81
2020/12/09 00:23:08;;;;;;;34.38;6.22;;;3.80;99.50;;;;;;5089812;28;20377;-82
2020/12/09 00:25:34;;;;;;;21.73;6.18;;;3.80;99.70;;;;;;5089755;28;20082;-81
2020/12/09 00:28:00;;;;;;;19.83;5.22;;;3.70;99.70;;;;;;5072919;28;20024;-81
2020/12/09 00:30:26;;;;;;;28.70;6.63;;;3.70;99.50;;;;;;5072904;28;20049;-81
2020/12/09 00:32:51;;;;;;;22.92;5.78;;;3.60;99.40;;;;;;5089633;28;20048;-81
2020/12/09 00:35:17;;;;;;;27.45;8.85;;;3.60;99.40;;;;;;5090828;28;20032;-82
2020/12/09 00:37:43;;;;;;;23.67;7.55;;;3.50;99.40;;;;;;5072603;28;20078;-82
2020/12/09 00:40:09;;;;;;;31.98;9.45;;;3.50;99.40;;;;;;5089515;28;20036;-82
2020/12/09 00:42:35;;;;;;;20.67;6.70;;;3.50;99.50;;;;;;5071455;28;20376;-80
2020/12/09 00:45:01;;;;;;;35.25;9.40;;;3.50;99.60;;;;;;5089334;28;20028;-80
2020/12/09 00:47:26;;;;;;;24.10;6.15;;;3.50;99.70;;;;;;5089696;28;20026;-83
2020/12/09 00:52:51;;;;;;;34.80;7.00;;;3.70;99.80;;;;;;5067045;28;20047;-79
2020/12/09 00:55:17;;;;;;;22.48;5.97;;;3.70;99.80;;;;;;5090650;28;20020;-81
2020/12/09 00:57:42;;;;;;;19.63;7.50;;;3.80;99.80;;;;;;5089194;28;20119;-82
2020/12/09 01:00:08;;;;;;;17.35;6.03;;;3.90;99.80;;;;;;5072201;28;20032;-79
2020/12/09 01:02:34;;;;;;;31.65;8.30;;;4.00;99.80;;;;;;5088982;28;20036;-80
2020/12/09 01:05:00;;;;;;;19.38;5.88;;;4.10;99.80;;;;;;5090082;28;20048;-80
2020/12/09 01:07:26;;;;;;;22.27;5.57;;;4.20;99.70;;;;;;5072260;28;20492;-80
2020/12/09 01:09:52;;;;;;;19.10;4.75;;;4.20;99.60;;;;;;5072018;28;20131;-79
2020/12/09 01:12:18;;;;;;;16.80;4.60;;;4.30;99.70;;;;;;5089281;28;20103;-82
2020/12/09 01:14:44;;;;;;;20.33;4.32;;;4.40;99.70;;;;;;5088924;28;20506;-79
2020/12/09 01:17:09;;;;;;;14.68;3.70;;;4.50;99.60;;;;;;5088897;28;20032;-81
2020/12/09 01:19:35;;;;;;;21.80;4.43;;;4.50;99.60;;;;;;5088887;28;20028;-80
2020/12/09 01:22:05;;;;;;;14.05;4.13;;;4.60;99.60;;;;;;5088664;28;20054;-80
2020/12/09 01:24:31;;;;;;;21.20;4.15;;;4.70;99.50;;;;;;5088556;28;20036;-81
2020/12/09 01:26:57;;;;;;;16.63;3.92;;;4.70;99.50;;;;;;5088732;28;20020;-82
2020/12/09 01:29:22;;;;;;;21.05;4.07;;;4.80;99.40;;;;;;5071742;28;20118;-79
2020/12/09 01:31:48;;;;;;;18.95;3.88;;;4.80;99.40;;;;;;5088749;28;20020;-81
2020/12/09 01:34:14;;;;;;;18.05;5.18;;;4.90;99.40;;;;;;5071649;28;20074;-80
2020/12/09 01:36:41;;;;;;;18.92;4.00;;;4.90;99.40;;;;;;5088706;28;20028;-80
2020/12/09 01:39:06;;;;;;;14.98;3.35;;;4.90;99.30;;;;;;5088510;28;20016;-82
2020/12/09 01:41:32;;;;;;;15.27;3.80;;;5.00;99.20;;;;;;5088470;28;20028;-81
2020/12/09 01:43:58;;;;;;;18.48;3.83;;;5.00;99.10;;;;;;5087996;28;20032;-80
2020/12/09 01:46:33;;;;;;;16.17;3.97;;;5.00;99.10;;;;;;5071289;28;20429;-82
2020/12/09 01:49:00;;;;;;;13.60;3.40;;;5.00;99.00;;;;;;5071263;28;20478;-81
2020/12/09 01:51:28;;;;;;;13.32;3.78;;;5.00;99.00;;;;;;5089497;28;20478;-80
2020/12/09 01:53:56;;;;;;;17.67;3.38;;;5.10;99.00;;;;;;5089143;28;20024;-81
2020/12/09 01:56:22;;;;;;;12.00;2.92;;;5.00;98.90;;;;;;5088056;28;20039;-82
2020/12/09 01:58:49;;;;;;;20.25;3.05;;;5.00;98.80;;;;;;5089253;28;20541;-81
2020/12/09 02:01:15;;;;;;;15.88;3.83;;;5.00;98.80;;;;;;5088306;28;20039;-79
2020/12/09 02:03:41;;;;;;;18.90;4.18;;;4.90;98.70;;;;;;5088960;28;20340;-81
2020/12/09 02:06:07;;;;;;;15.15;3.03;;;4.90;98.60;;;;;;5088912;28;20048;-81
2020/12/09 02:08:33;;;;;;;12.80;3.33;;;4.70;98.50;;;;;;5087909;28;20032;-80
2020/12/09 02:11:03;;;;;;;16.95;3.30;;;4.60;98.60;;;;;;5087820;28;20039;-81
2020/12/09 02:13:30;;;;;;;15.73;2.65;;;4.50;98.70;;;;;;5089098;28;20045;-82
2020/12/09 02:16:00;;;;;;;16.70;3.92;;;4.50;98.90;;;;;;5087696;28;20029;-81
2020/12/09 02:18:27;;;;;;;15.82;3.47;;;4.50;99.10;;;;;;5088104;28;20020;-79
2020/12/09 02:20:53;;;;;;;10.73;2.97;;;4.50;99.20;;;;;;5087435;28;20085;-82
2020/12/09 02:23:19;;;;;;;16.67;3.63;;;4.60;99.20;;;;;;5088864;28;20447;-83
2020/12/09 02:25:45;;;;;;;15.45;3.38;;;4.70;99.20;;;;;;5087586;28;20048;-79
2020/12/09 02:28:12;;;;;;;18.27;4.47;;;4.80;99.10;;;;;;5088855;28;20490;-79
2020/12/09 02:30:38;;;;;;;13.75;2.78;;;4.80;99.10;;;;;;5088621;28;20036;-80
2020/12/09 02:33:04;;;;;;;11.85;2.63;;;4.90;98.90;;;;;;5088740;28;20028;-79
2020/12/09 02:35:30;;;;;;;9.20;2.50;;;4.90;98.70;;;;;;5088484;28;20027;-79
2020/12/09 02:37:55;;;;;;;15.20;2.97;;;4.90;98.60;;;;;;5070328;28;20024;-81
2020/12/09 02:40:22;;;;;;;12.82;3.08;;;4.90;98.70;;;;;;5087223;28;20092;-81
2020/12/09 02:42:49;;;;;;;12.80;3.75;;;4.90;98.70;;;;;;5087154;28;20103;-81
2020/12/09 02:45:15;;;;;;;9.55;3.05;;;4.90;98.60;;;;;;5087070;28;20073;-80
2020/12/09 02:47:41;;;;;;;17.27;3.17;;;4.90;98.50;;;;;;5088485;28;20027;-80
2020/12/09 02:50:07;;;;;;;11.63;3.17;;;4.90;98.50;;;;;;5087146;28;20506;-80
2020/12/09 02:52:33;;;;;;;18.52;2.65;;;4.80;98.50;;;;;;5087242;28;20028;-81
2020/12/09 02:54:58;;;;;;;16.55;3.33;;;4.80;98.50;;;;;;5086943;28;20028;-80
2020/12/09 02:57:24;;;;;;;10.93;2.70;;;4.90;98.50;;;;;;5086738;28;20131;-82
2020/12/09 02:59:50;;;;;;;18.05;2.88;;;4.80;98.40;;;;;;5070044;28;20036;-81
2020/12/09 03:02:15;;;;;;;12.27;2.75;;;4.80;98.20;;;;;;5086993;28;20034;-80
2020/12/09 03:04:41;;;;;;;13.02;2.42;;;4.70;98.10;;;;;;5087330;28;20082;-81
2020/12/09 03:07:07;;;;;;;12.38;2.50;;;4.60;98.00;;;;;;5070333;28;20044;-81
2020/12/09 03:09:33;;;;;;;17.85;2.63;;;4.60;98.10;;;;;;5086919;28;20024;-79
2020/12/09 03:11:59;;;;;;;14.25;4.25;;;4.50;98.10;;;;;;5069870;28;20090;-81
2020/12/09 03:14:24;;;;;;;16.33;2.50;;;4.40;98.30;;;;;;5069860;28;20474;-82
2020/12/09 03:16:50;;;;;;;13.27;2.55;;;4.40;98.40;;;;;;5069724;28;20020;-82
2020/12/09 03:19:16;;;;;;;14.70;2.95;;;4.50;98.50;;;;;;5069647;28;20039;-82
2020/12/09 03:21:42;;;;;;;10.18;2.03;;;4.50;98.60;;;;;;5086632;28;20036;-79
2020/12/09 03:24:11;;;;;;;24.98;3.22;;;4.60;98.50;;;;;;5086490;28;20112;-79
2020/12/09 03:26:37;;;;;;;12.20;2.63;;;4.60;98.30;;;;;;5086464;28;20506;-80
2020/12/09 03:29:03;;;;;;;13.23;3.47;;;4.60;98.30;;;;;;5086556;28;20028;-81
2020/12/09 03:31:28;;;;;;;21.80;3.65;;;4.60;98.20;;;;;;5086441;28;20073;-82
2020/12/09 03:33:54;;;;;;;12.68;3.40;;;4.50;98.10;;;;;;5069920;28;20424;-83
2020/12/09 03:36:20;;;;;;;15.40;2.72;;;4.50;98.20;;;;;;5086604;28;20024;-81
2020/12/09 03:38:45;;;;;;;9.13;2.78;;;4.50;98.20;;;;;;5086609;28;20029;-80
2020/12/09 03:41:11;;;;;;;11.60;2.45;;;4.50;98.40;;;;;;5087552;28;20028;-79
2020/12/09 03:43:37;;;;;;;15.55;2.20;;;4.50;98.40;;;;;;5086477;28;20059;-81
2020/12/09 03:46:02;;;;;;;22.40;2.58;;;4.50;98.30;;;;;;5086440;28;20024;-80
2020/12/09 03:48:28;;;;;;;20.52;2.95;;;4.50;98.20;;;;;;5086323;28;20024;-79
2020/12/09 03:50:54;;;;;;;16.60;2.45;;;4.50;98.10;;;;;;5087859;28;20551;-78
2020/12/09 03:53:21;;;;;;;14.32;3.33;;;4.50;97.90;;;;;;5086336;28;20677;-79
2020/12/09 03:55:50;;;;;;;23.80;2.55;;;4.50;97.80;;;;;;5069541;28;20058;-80
2020/12/09 03:58:16;;;;;;;18.40;3.10;;;4.30;97.70;;;;;;5086248;28;20032;-81
2020/12/09 04:00:42;;;;;;;14.63;2.90;;;4.30;97.80;;;;;;5086251;28;20039;-80
2020/12/09 04:03:08;;;;;;;15.50;2.58;;;4.20;97.70;;;;;;5087395;28;20471;-80
2020/12/09 04:05:34;;;;;;;13.57;2.78;;;4.10;97.80;;;;;;5086066;28;20091;-79
2020/12/09 04:08:00;;;;;;;12.00;2.50;;;4.00;97.90;;;;;;5087554;28;20057;-81
2020/12/09 04:10:26;;;;;;;10.65;2.55;;;3.90;97.90;;;;;;5069304;28;20127;-81
2020/12/09 04:12:52;;;;;;;12.30;2.28;;;3.90;98.00;;;;;;5087619;28;20072;-79
2020/12/09 04:15:18;;;;;;;11.00;2.53;;;3.80;97.90;;;;;;5069420;28;20486;-79
2020/12/09 04:17:44;;;;;;;9.27;1.88;;;3.80;98.00;;;;;;5072713;28;20062;-79
2020/12/09 04:20:09;;;;;;;17.88;3.28;;;3.70;98.10;;;;;;5072935;28;20482;-80
2020/12/09 04:22:35;;;;;;;19.52;2.50;;;3.70;98.10;;;;;;5089740;28;20032;-81
2020/12/09 04:25:02;;;;;;;17.73;2.97;;;3.70;98.10;;;;;;5091026;28;20029;-82
2020/12/09 04:27:28;;;;;;;18.38;2.75;;;3.60;98.10;;;;;;5090975;28;20097;-79
2020/12/09 04:29:54;;;;;;;12.57;3.35;;;3.60;98.20;;;;;;5072702;28;20062;-79
2020/12/09 04:32:20;;;;;;;14.90;2.70;;;3.60;98.20;;;;;;5089507;28;20036;-79
2020/12/09 04:34:46;;;;;;;14.05;2.15;;;3.50;98.20;;;;;;5090997;28;20031;-82
2020/12/09 04:37:12;;;;;;;17.45;2.28;;;3.50;98.20;;;;;;5072688;28;20055;-80
2020/12/09 04:39:38;;;;;;;19.42;3.20;;;3.50;98.20;;;;;;5089513;28;20032;-79
2020/12/09 04:42:04;;;;;;;15.27;1.83;;;3.50;98.20;;;;;;5072466;28;20559;-81
2020/12/09 04:44:30;;;;;;;8.43;1.33;;;3.50;98.20;;;;;;5089415;28;20036;-81
2020/12/09 04:47:03;;;;;;;14.32;3.00;;;3.40;98.20;;;;;;5072568;28;20071;-82
2020/12/09 04:49:44;;;;;;;16.67;2.22;;;3.40;98.20;;;;;;5090645;28;20060;-82
2020/12/09 04:52:20;;;;;;;13.88;2.53;;;3.40;98.30;;;;;;5090545;28;20020;-81
2020/12/09 04:54:47;;;;;;;10.35;2.38;;;3.40;98.30;;;;;;5089219;28;20035;-80
2020/12/09 04:57:53;;;;;;;9.93;2.80;;;3.40;98.30;;;;;;5090738;28;20470;-79
2020/12/09 05:00:19;;;;;;;13.80;2.38;;;3.40;98.50;;;;;;5088957;28;20028;-80
2020/12/09 05:02:45;;;;;;;17.05;2.13;;;3.50;98.50;;;;;;5072165;28;20123;-82
2020/12/09 05:05:21;;;;;;;12.80;1.90;;;3.60;98.60;;;;;;5090052;28;20118;-83
2020/12/09 05:08:00;;;;;;;16.67;2.47;;;3.60;98.50;;;;;;5088934;28;20027;-81
2020/12/09 05:10:25;;;;;;;15.02;2.22;;;3.70;98.40;;;;;;5088856;28;20047;-78
2020/12/09 05:12:53;;;;;;;13.63;3.03;;;3.70;98.30;;;;;;5088983;28;20035;-79
2020/12/09 05:15:25;;;;;;;24.17;3.20;;;3.60;98.20;;;;;;5090128;28;20484;-81
2020/12/09 05:18:10;;;;;;;12.57;2.08;;;3.60;98.20;;;;;;5072017;28;20456;-81
2020/12/09 05:20:39;;;;;;;10.95;1.90;;;3.60;98.30;;;;;;5088794;28;20070;-81
2020/12/09 05:23:07;;;;;;;14.20;1.85;;;3.60;98.40;;;;;;5090027;28;20048;-80
2020/12/09 05:25:37;;;;;;;18.63;2.58;;;3.70;98.50;;;;;;5089859;28;20414;-82
2020/12/09 05:28:04;;;;;;;13.98;2.47;;;3.70;98.50;;;;;;5071771;28;20039;-80
2020/12/09 05:30:51;;;;;;;15.20;2.00;;;3.80;98.50;;;;;;5089789;28;20028;-79
2020/12/09 05:33:29;;;;;;;14.75;1.80;;;3.90;98.50;;;;;;5089854;28;20028;-79
2020/12/09 05:35:57;;;;;;;12.32;2.20;;;4.00;98.40;;;;;;5089469;28;20073;-81
2020/12/09 05:38:22;;;;;;;8.65;2.20;;;4.10;98.30;;;;;;5088385;28;20441;-79
2020/12/09 05:40:48;;;;;;;11.32;1.90;;;4.10;98.20;;;;;;5088222;28;20036;-80
2020/12/09 05:43:15;;;;;;;14.93;2.22;;;4.10;98.10;;;;;;5088209;28;20123;-80
2020/12/09 05:45:41;;;;;;;12.70;2.35;;;4.20;98.10;;;;;;5088218;28;20020;-81
2020/12/09 05:48:22;;;;;;;18.27;2.28;;;4.20;98.10;;;;;;5089476;28;20024;-81
2020/12/09 05:50:48;;;;;;;13.77;2.45;;;4.20;98.10;;;;;;5088195;28;20024;-80
2020/12/09 05:53:24;;;;;;;23.35;2.22;;;4.20;98.10;;;;;;5088260;28;20031;-81
2020/12/09 05:55:57;;;;;;;13.15;2.00;;;4.20;98.10;;;;;;5088084;28;20036;-82
2020/12/09 05:58:29;;;;;;;14.95;2.22;;;4.30;98.10;;;;;;5072211;28;20039;-81
2020/12/09 06:01:23;;;;;;;10.73;1.90;;;4.30;98.10;;;;;;5088401;28;20028;-79
2020/12/09 06:03:51;;;;;;;15.25;1.77;;;4.30;98.10;;;;;;5087838;28;20032;-81
2020/12/09 06:06:19;;;;;;;9.60;2.08;;;4.40;98.10;;;;;;5087715;28;20056;-81
2020/12/09 06:08:56;;;;;;;12.65;1.77;;;4.40;98.00;;;;;;5087700;28;20093;-80
2020/12/09 06:11:24;;;;;;;12.02;1.88;;;4.50;98.00;;;;;;5087702;28;20469;-80
2020/12/09 06:13:50;;;;;;;12.52;1.90;;;4.50;98.00;;;;;;5070910;28;20133;-82
2020/12/09 06:16:18;;;;;;;10.88;1.77;;;4.60;98.00;;;;;;5088835;28;20032;-79
2020/12/09 06:18:48;;;;;;;7.75;2.10;;;4.60;97.90;;;;;;5071089;28;20116;-81
2020/12/09 06:21:14;;;;;;;11.88;2.17;;;4.70;97.90;;;;;;5088959;28;20020;-82
2020/12/09 06:23:41;;;;;;;10.25;1.70;;;4.70;97.80;;;;;;5070622;28;20039;-79
2020/12/09 06:26:07;;;;;;;7.35;1.50;;;4.70;97.80;;;;;;5087196;28;20427;-79
2020/12/09 06:28:39;;;;;;;16.63;2.35;;;4.70;97.80;;;;;;5088723;28;20112;-78
2020/12/09 06:31:19;;;;;;;19.92;2.25;;;4.80;97.80;;;;;;5087298;28;20020;-80
2020/12/09 06:33:53;;;;;;;18.30;2.30;;;4.80;97.80;;;;;;5088740;28;20035;-81
2020/12/09 06:36:26;;;;;;;13.98;2.47;;;4.80;97.70;;;;;;5087172;28;20034;-82
2020/12/09 06:39:13;;;;;;;15.77;2.75;;;4.90;97.70;;;;;;5088429;28;20054;-81
2020/12/09 06:41:41;;;;;;;18.27;2.38;;;4.90;97.70;;;;;;5086927;28;20364;-75
2020/12/09 06:44:10;;;;;;;11.90;2.08;;;5.00;97.70;;;;;;5088378;28;20533;-78
2020/12/09 06:46:37;;;;;;;16.95;2.25;;;5.00;97.70;;;;;;5088333;28;20024;-79
2020/12/09 06:49:04;;;;;;;15.57;2.97;;;5.00;97.60;;;;;;5087071;28;20032;-80
2020/12/09 06:51:38;;;;;;;18.35;1.92;;;5.00;97.60;;;;;;5088457;28;20037;-79
2020/12/09 06:54:14;;;;;;;24.45;2.28;;;5.10;97.60;;;;;;5088015;28;20428;-83
2020/12/09 06:56:40;;;;;;;12.60;1.83;;;5.10;97.60;;;;;;5069956;28;20032;-80
2020/12/09 06:59:23;;;;;;;14.90;2.28;;;5.10;97.50;;;;;;5086587;28;20036;-80
2020/12/09 07:02:05;;;;;;;8.50;2.28;;;5.20;97.50;;;;;;5088254;28;20032;-79
2020/12/09 07:05:14;;;;;;;11.45;1.90;;;5.20;97.50;;;;;;5086935;28;20378;-81
2020/12/09 07:07:48;;;;;;;13.02;2.13;;;5.30;97.50;;;;;;5028646;28;20033;-79
2020/12/09 07:10:19;;;;;;;16.55;2.08;;;5.30;97.40;;;;;;5028728;28;20027;-80
2020/12/09 07:13:12;;;;;;;9.77;2.90;;;5.30;97.40;;;;;;5070428;28;20035;-79
2020/12/09 07:15:47;;;;;;;12.43;2.10;;;5.40;97.40;;;;;;5086373;28;20071;-80
2020/12/09 07:18:13;;;;;;;8.55;2.97;;;5.40;97.40;;;;;;5086723;28;20039;-81
2020/12/09 07:20:40;;;;;;;16.50;2.67;;;5.40;97.40;;;;;;5069493;28;20032;-82
2020/12/09 07:23:06;;;;;;;12.65;2.00;;;5.40;97.30;;;;;;5086220;28;20039;-82
2020/12/09 07:25:34;;;;;;;15.30;2.08;;;5.50;97.40;;;;;;5087395;28;20024;-80
2020/12/09 07:28:00;;;;;;;10.88;1.80;;;5.50;97.30;;;;;;5087682;28;20052;-80
2020/12/09 07:30:26;;;;;;;12.00;2.20;;;5.50;97.30;;;;;;5086544;28;20081;-81
2020/12/09 07:32:52;;;;;;;11.98;2.53;;;5.60;97.40;;;;;;5086588;28;20040;-82
2020/12/09 07:35:19;;;;;;;15.80;2.75;;;5.60;97.30;;;;;;5086311;28;20122;-78
2020/12/09 07:37:50;;;;;;;14.88;2.28;;;5.70;97.30;;;;;;5069586;28;20047;-79
2020/12/09 07:40:29;;;;;;;16.75;2.75;;;5.70;97.30;;;;;;5087707;28;20031;-81
2020/12/09 07:43:03;;;;;;;10.85;2.45;;;5.80;97.30;;;;;;5086673;28;20024;-79
2020/12/09 07:45:29;;;;;;;10.05;1.80;;;5.80;97.20;;;;;;5087915;28;20067;-79
2020/12/09 07:48:07;;;;;;;20.98;2.60;;;5.90;97.20;;;;;;5087072;28;20055;-81
2020/12/09 07:50:33;;;;;;;12.35;2.40;;;5.90;97.10;;;;;;5086100;28;20047;-82
2020/12/09 07:52:59;;;;;;;16.42;1.83;;;5.90;97.00;;;;;;5090477;28;20078;-79
2020/12/09 07:55:26;;;;;;;13.10;2.10;;;5.90;97.00;;;;;;5090126;28;20425;-79
2020/12/09 07:58:01;;;;;;;13.93;2.58;;;5.90;97.00;;;;;;5089834;28;20035;-80
2020/12/09 08:00:40;;;;;;;11.20;1.50;;;5.90;97.00;;;;;;5089811;28;20107;-79
2020/12/09 08:03:15;;;;;;;12.77;2.00;;;5.80;97.00;;;;;;5091237;28;20024;-80
2020/12/09 08:05:40;;;;;;;13.70;2.30;;;5.90;97.00;;;;;;5089933;28;20044;-79
2020/12/09 08:08:12;;;;;;;19.10;2.85;;;5.90;97.00;;;;;;5089816;28;20435;-80
2020/12/09 08:10:39;;;;;;;16.42;2.40;;;5.90;97.00;;;;;;5073368;28;20036;-80
2020/12/09 08:13:13;;;;;;;15.27;3.00;;;5.90;97.00;;;;;;5073044;28;20039;-81
2020/12/09 08:15:41;;;;;;;14.18;2.33;;;5.90;97.00;;;;;;5089828;28;20101;-81
2020/12/09 08:18:08;;;;;;;16.33;2.17;;;5.90;97.00;;;;;;5091009;28;20024;-82
2020/12/09 08:20:48;;;;;;;20.38;1.90;;;6.00;97.00;;;;;;5090000;28;20043;-80
2020/12/09 08:23:14;;;;;;;14.95;2.35;;;6.00;97.00;;;;;;5089337;28;20032;-81
2020/12/09 08:25:53;;;;;;;12.40;2.40;;;6.00;97.00;;;;;;5089317;28;20027;-79
2020/12/09 08:28:21;;;;;;;12.05;2.30;;;6.00;97.00;;;;;;5090711;28;20032;-80
2020/12/09 08:30:47;;;;;;;20.38;2.47;;;6.10;97.10;;;;;;5090499;28;20028;-79
2020/12/09 08:33:15;;;;;;;15.38;1.98;;;6.10;97.00;;;;;;5089210;28;20581;-80
2020/12/09 08:35:43;;;;;;;12.25;2.05;;;6.10;97.00;;;;;;5089199;28;20031;-80
2020/12/09 08:38:10;;;;;;;24.08;2.42;;;6.10;97.00;;;;;;5090454;28;20036;-82
2020/12/09 08:40:36;;;;;;;20.77;4.40;;;6.20;97.00;;;;;;5072209;28;20024;-81
2020/12/09 08:43:02;;;;;;;12.93;2.38;;;6.10;97.00;;;;;;5088607;28;20028;-79
2020/12/09 08:45:28;;;;;;;18.85;2.50;;;6.20;97.10;;;;;;5071998;28;20032;-82
2020/12/09 08:47:54;;;;;;;13.57;2.47;;;6.20;97.10;;;;;;5072083;28;20452;-80
2020/12/09 08:50:20;;;;;;;10.10;1.90;;;6.20;97.10;;;;;;5071651;28;20331;-80
2020/12/09 08:52:46;;;;;;;14.40;2.25;;;6.30;97.20;;;;;;5088160;28;20144;-81
2020/12/09 08:55:12;;;;;;;12.73;2.28;;;6.30;97.20;;;;;;5088733;28;20070;-79
2020/12/09 08:57:38;;;;;;;14.18;2.50;;;6.40;97.20;;;;;;5088060;28;20036;-81
2020/12/09 09:00:07;;;;;;;18.65;2.58;;;6.40;97.20;;;;;;5071471;28;20024;-81
2020/12/09 09:02:33;;;;;;;;;;;6.50;97.20;;;;;;5088886;28;20032;-80
2020/12/09 09:04:59;;;;;;;21.77;2.78;;;6.60;97.20;;;;;;5087689;28;19919;-80
2020/12/09 09:07:25;;;;;;;18.15;2.55;;;6.60;97.10;;;;;;5089202;28;20043;-80
2020/12/09 09:09:51;;;;;;;15.30;2.65;;;6.60;97.30;;;;;;5089396;28;20067;-81
2020/12/09 09:12:17;;;;;;;15.55;1.95;;;6.70;97.10;;;;;;5087599;28;20060;-80
2020/12/09 09:14:43;;;;;;;16.05;3.00;;;6.70;97.10;;;;;;5071041;28;20028;-80
2020/12/09 09:17:09;;;;;;;14.70;2.47;;;6.70;97.10;;;;;;5088382;28;20028;-81
2020/12/09 09:19:35;;;;;;;20.92;2.25;;;6.70;97.10;;;;;;5088521;28;20144;-80
2020/12/09 09:22:01;;;;;;;14.95;2.55;;;6.80;97.20;;;;;;5087656;28;20032;-79
2020/12/09 09:24:27;;;;;;;12.57;2.63;;;6.80;97.20;;;;;;5088912;28;20081;-79
2020/12/09 09:26:53;;;;;;;13.93;2.53;;;6.90;97.30;;;;;;5088971;28;20329;-80
2020/12/09 09:29:18;;;;;;;16.88;2.15;;;7.00;97.30;;;;;;5088964;28;20107;-80
2020/12/09 09:31:44;;;;;;;15.57;3.17;;;7.10;97.20;;;;;;5071343;28;20024;-79
2020/12/09 09:34:10;;;;;;;12.93;1.85;;;7.20;97.20;;;;;;5088048;28;20033;-79
2020/12/09 09:36:36;;;;;;;12.48;2.20;;;7.30;97.10;;;;;;5087806;28;20498;-80
2020/12/09 09:39:02;;;;;;;15.60;2.67;;;7.30;97.00;;;;;;5070796;28;20036;-80
2020/12/09 09:41:28;;;;;;;10.93;2.17;;;7.30;96.90;;;;;;5087438;28;20119;-80
2020/12/09 09:43:53;;;;;;;15.13;2.00;;;7.40;96.90;;;;;;5070647;28;20119;-80
2020/12/09 09:46:24;;;;;;;17.63;2.97;;;7.40;96.80;;;;;;5087031;28;20028;-79
2020/12/09 09:48:50;;;;;;;17.75;2.55;;;7.40;96.80;;;;;;5087357;28;20016;-79
2020/12/09 09:51:16;;;;;;;16.05;2.88;;;7.40;96.80;;;;;;5088842;28;20024;-80
2020/12/09 09:53:42;;;;;;;14.45;1.85;;;7.40;96.80;;;;;;5070698;28;20489;-79
2020/12/09 09:56:08;;;;;;;14.40;1.88;;;7.40;96.70;;;;;;5087076;28;20341;-79
2020/12/09 09:58:34;;;;;;;10.60;2.45;;;7.40;96.70;;;;;;5086908;28;20039;-80
2020/12/09 10:00:59;;;;;;;11.00;2.15;;;7.40;96.70;;;;;;5088204;28;20032;-79
2020/12/09 10:03:25;;;;;;;19.85;2.00;;;7.40;96.80;;;;;;5088664;28;20032;-80
2020/12/09 10:05:55;;;;;;;14.43;2.00;;;7.40;96.80;;;;;;5086796;28;20043;-79
2020/12/09 10:08:21;;;;;;;9.23;2.10;;;7.50;96.80;;;;;;5071688;28;20074;-79
2020/12/09 10:10:47;;;;;;;8.77;2.28;;;7.50;96.80;;;;;;5090639;28;20028;-78
2020/12/09 10:13:12;;;;;;;14.50;1.90;;;7.50;96.80;;;;;;5090530;28;20028;-79
2020/12/09 10:15:40;;;;;;;8.15;1.10;;;7.50;96.80;;;;;;5088852;28;20032;-79
2020/12/09 10:18:05;;;;;;;5.38;1.65;;;7.50;96.80;;;;;;5090189;28;20466;-79
2020/12/09 10:20:31;;;;;;;11.40;1.73;;;7.50;96.80;;;;;;5089911;28;20030;-81
2020/12/09 10:22:57;;;;;;;9.18;1.25;;;7.50;96.80;;;;;;5089112;28;20091;-79
2020/12/09 10:25:24;;;;;;;15.18;2.45;;;7.60;96.80;;;;;;5088634;28;20028;-80
2020/12/09 10:27:50;;;;;;;9.10;1.50;;;7.60;96.80;;;;;;5072006;28;20047;-79
2020/12/09 10:30:16;;;;;;;7.88;1.55;;;7.70;96.80;;;;;;5072310;28;20032;-78
2020/12/09 10:32:44;;;;;;;9.23;1.17;;;7.70;96.80;;;;;;5089138;28;20032;-79
2020/12/09 10:35:09;;;;;;;8.93;1.58;;;7.70;96.70;;;;;;5090186;28;20036;-80
2020/12/09 10:37:35;;;;;;;13.05;1.10;;;7.80;96.70;;;;;;5071852;28;20030;-80
2020/12/09 10:40:01;;;;;;;9.18;1.67;;;7.80;96.70;;;;;;5088714;28;20051;-79
2020/12/09 10:42:27;;;;;;;6.70;1.17;;;7.90;96.60;;;;;;5089397;28;20107;-79
2020/12/09 10:44:52;;;;;;;8.30;1.25;;;7.90;96.70;;;;;;5088765;28;20032;-79
2020/12/09 10:47:19;;;;;;;5.45;1.30;;;7.90;96.60;;;;;;5088065;28;20054;-80
2020/12/09 10:49:45;;;;;;;8.05;1.50;;;8.00;96.70;;;;;;5071059;28;20028;-78
2020/12/09 10:52:14;;;;;;;12.52;2.10;;;8.00;96.70;;;;;;5089003;28;20099;-78
2020/12/09 10:54:40;;;;;;;8.38;2.92;;;8.10;96.80;;;;;;5087948;28;20031;-79
2020/12/09 10:57:06;;;;;;;5.47;2.15;;;8.10;96.80;;;;;;5087913;28;20111;-79
2020/12/09 10:59:32;;;;;;;7.97;1.50;;;8.20;96.80;;;;;;5087700;28;20051;-78
2020/12/09 11:01:57;;;;;;;11.95;1.75;;;8.20;96.80;;;;;;5088702;28;20024;-80
2020/12/09 11:04:24;;;;;;;6.72;1.45;;;8.30;96.90;;;;;;5089632;28;20032;-76
2020/12/09 11:06:49;;;;;;;11.27;2.78;;;8.40;96.90;;;;;;5091363;28;20479;-79
2020/12/09 11:09:15;;;;;;;17.98;2.35;;;8.40;96.90;;;;;;5089222;28;20051;-81
2020/12/09 11:11:47;;;;;;;7.80;1.35;;;8.50;97.00;;;;;;5088853;28;20030;-81
2020/12/09 11:14:14;;;;;;;8.63;1.60;;;8.60;97.00;;;;;;5090782;28;20081;-81
2020/12/09 11:16:40;;;;;;;16.23;2.85;;;8.70;97.00;;;;;;5089614;28;20111;-79
2020/12/09 11:19:06;;;;;;;10.82;1.60;;;8.80;97.00;;;;;;5089826;28;20094;-77
2020/12/09 11:21:32;;;;;;;11.98;2.95;;;8.90;97.00;;;;;;5089234;28;20035;-82
2020/12/09 11:23:59;;;;;;;12.30;1.85;;;9.00;96.90;;;;;;5072796;28;20032;-80
2020/12/09 11:26:29;;;;;;;11.63;1.38;;;9.00;96.80;;;;;;5088608;28;20880;-78
2020/12/09 11:28:54;;;;;;;8.00;1.60;;;9.10;96.80;;;;;;5089980;28;20020;-78
2020/12/09 11:31:21;;;;;;;4.88;1.33;;;9.10;96.90;;;;;;5089672;28;20099;-80
2020/12/09 11:33:49;;;;;;;9.25;1.40;;;9.10;96.80;;;;;;5090044;28;20028;-79
2020/12/09 11:36:14;;;;;;;13.00;1.67;;;9.10;96.80;;;;;;5089852;28;20035;-81
2020/12/09 11:38:41;;;;;;;6.70;1.60;;;9.10;96.70;;;;;;5072988;28;20028;-80
2020/12/09 11:41:06;;;;;;;8.45;1.30;;;9.10;96.70;;;;;;5090392;28;20041;-82
2020/12/09 11:43:32;;;;;;;17.58;2.05;;;9.10;96.70;;;;;;5088786;28;20039;-83
2020/12/09 11:45:58;;;;;;;9.65;1.38;;;9.20;96.70;;;;;;5090200;28;20028;-81
2020/12/09 11:48:25;;;;;;;6.20;1.88;;;9.20;96.70;;;;;;5089744;28;20059;-80
2020/12/09 11:50:51;;;;;;;10.60;1.95;;;9.20;96.70;;;;;;5090304;28;20013;-80
2020/12/09 11:53:17;;;;;;;8.07;1.65;;;9.20;96.60;;;;;;5090641;28;20082;-83
2020/12/09 11:55:42;;;;;;;17.40;1.85;;;9.30;96.70;;;;;;5087973;28;20024;-80
2020/12/09 11:58:08;;;;;;;10.98;1.70;;;9.30;96.70;;;;;;5089800;28;20043;-80
2020/12/09 12:00:35;;;;;;;5.88;1.40;;;9.30;96.60;;;;;;5072110;28;20039;-84
2020/12/09 12:03:01;;;;;;;8.75;1.20;;;9.30;96.60;;;;;;5089133;28;20038;-82
2020/12/09 12:05:28;;;;;;;7.90;1.60;;;9.30;96.60;;;;;;5087501;28;20044;-78
2020/12/09 12:07:53;;;;;;;8.20;1.30;;;9.30;96.60;;;;;;5071362;28;20416;-79
2020/12/09 12:10:19;;;;;;;6.18;1.17;;;9.30;96.60;;;;;;5089002;28;20045;-79
2020/12/09 12:12:45;;;;;;;10.35;1.38;;;9.30;96.50;;;;;;5088877;28;20724;-79
2020/12/09 12:15:11;;;;;;;4.78;0.90;;;9.40;96.60;;;;;;5087662;28;20097;-79
2020/12/09 12:17:37;;;;;;;7.60;1.17;;;9.40;96.60;;;;;;5087608;28;20114;-78
2020/12/09 12:20:03;;;;;;;5.68;1.45;;;9.40;96.50;;;;;;5087701;28;20150;-78
2020/12/09 12:22:29;;;;;;;12.30;1.25;;;9.40;96.50;;;;;;5088800;28;20033;-79
2020/12/09 12:24:54;;;;;;;10.55;1.17;;;9.40;96.50;;;;;;5087366;28;20121;-78
2020/12/09 12:27:20;;;;;;;8.38;1.67;;;9.50;96.50;;;;;;5089086;28;20028;-79
2020/12/09 12:29:46;;;;;;;6.95;1.73;;;9.50;96.50;;;;;;5071239;28;20662;-79
2020/12/09 12:32:11;;;;;;;16.95;3.22;;;9.50;96.30;;;;;;5088378;28;20085;-79
2020/12/09 12:34:37;;;;;;;11.75;1.55;;;9.50;96.30;;;;;;5089326;28;20024;-79
2020/12/09 12:37:04;;;;;;;12.15;1.95;;;9.50;96.20;;;;;;5072778;28;20020;-79
2020/12/09 12:39:29;;;;;;;11.85;2.05;;;9.50;96.30;;;;;;5074014;28;20028;-77
2020/12/09 12:41:55;;;;;;;10.25;1.83;;;9.60;96.30;;;;;;5091922;28;20016;-79
2020/12/09 12:44:21;;;;;;;7.60;2.08;;;9.60;96.30;;;;;;5090510;28;20454;-79
2020/12/09 12:46:48;;;;;;;7.90;1.92;;;9.60;96.40;;;;;;5090964;28;20424;-78
2020/12/09 12:49:15;;;;;;;11.80;1.98;;;9.60;96.40;;;;;;5092034;28;20024;-78
2020/12/09 12:51:41;;;;;;;13.77;2.10;;;9.60;96.40;;;;;;5090930;28;20032;-77
2020/12/09 12:54:07;;;;;;;12.55;1.17;;;9.50;96.40;;;;;;5092682;28;20466;-78